Current Conditions
Overcast
Conditions



Pressure
993.92 (mb) - 29.35 (inHG)
Visibility

6.2 (miles) - 10.0 (km)
   Temperature
10  °C
Temperature
10  °C
Dewpoint
100  %
 Humidity
   Wind Speed
22  mph
19  kts
35  km/h
9.8  m/s
   Wind Direction
N
45°
E
90°
135°
S
180°
225°
W
270°
315°
 210°

South South
West
   Airport Data
EGUL
RAF Lakenheath
Metar :EGUL 192256Z AUTO 21019G28KT 9999 OVC015 10/10 A2935 RMK AO2 PK WND 20028/2158 CIG 014 RWY06 SLP942 T01030103 $
Tue 19th January 22:56 pm
   Raw Metar Info
Raw METAR is the most common format in the world for the transmission of observational weather data. It is highly standardized through the International Civil Aviation Organization (ICAO), which allows it to be understood throughout most of the world.
   API Info
Data Provided by
https://www.checkwx.com/weather/EGUL

Aviation Weather providing METAR, TAF, AIRMET, SIGMET and OUTLOOK Weather Reports
   © Info
CSS/SVG/PHP scripts were developed by weather34.com for use in the weather34 template © 2015-2021

Guide Info provided by Metar-Wikipedia